Time;durP1;ratioP1;P1;durP2;ratioP2;P2;SDS_P1;SDS_P2;PMS_P1;PMS_P2;Temp;Humidity;BMP_temperature;BMP_pressure;BME280_temperature;BME280_humidity;BME280_pressure;Samples;Min_cycle;Max_cycle;Signal;HPM_P1;HPM_P2
2023/09/09 00:01:52;;;;;;;2.80;2.50;;;;;;;23.70;54.90;100700.16;4553895;28;20072;-65
2023/09/09 00:04:04;;;;;;;2.83;2.63;;;;;;;23.68;54.42;100694.78;4537594;28;20124;-64
2023/09/09 00:06:14;;;;;;;2.70;2.50;;;;;;;23.68;54.29;100689.00;4554670;28;20775;-64
2023/09/09 00:08:25;;;;;;;3.42;2.80;;;;;;;23.70;54.54;100695.22;4555687;28;20132;-65
2023/09/09 00:10:36;;;;;;;3.13;2.80;;;;;;;23.67;54.46;100682.41;4557476;28;20056;-65
2023/09/09 00:12:47;;;;;;;2.85;2.65;;;;;;;23.71;54.78;100696.88;4555182;28;20140;-65
2023/09/09 00:14:57;;;;;;;3.00;2.70;;;;;;;23.68;54.71;100689.00;4556948;28;20440;-65
2023/09/09 00:17:08;;;;;;;2.60;2.40;;;;;;;23.71;54.78;100698.91;4557756;28;20029;-65
2023/09/09 00:19:21;;;;;;;2.72;2.53;;;;;;;23.70;54.79;100691.50;4553759;28;20107;-65
2023/09/09 00:21:31;;;;;;;2.92;2.70;;;;;;;23.69;54.77;100689.84;4555987;28;20028;-65
2023/09/09 00:23:42;;;;;;;2.85;2.55;;;;;;;23.61;54.75;100677.34;4555456;28;20041;-64
2023/09/09 00:25:52;;;;;;;2.95;2.60;;;;;;;23.63;54.99;100675.75;4554675;28;20120;-64
2023/09/09 00:28:04;;;;;;;3.00;2.70;;;;;;;23.70;55.06;100689.47;4553721;28;20041;-65
2023/09/09 00:30:15;;;;;;;2.92;2.70;;;;;;;23.69;55.39;100682.00;4554239;28;20811;-65
2023/09/09 00:32:25;;;;;;;2.78;2.53;;;;;;;23.70;55.53;100680.81;4553677;28;20432;-64
2023/09/09 00:34:36;;;;;;;2.92;2.72;;;;;;;23.66;55.51;100679.09;4533759;28;20020;-65
2023/09/09 00:36:46;;;;;;;2.67;2.47;;;;;;;23.64;55.38;100671.66;4554506;28;20032;-65
2023/09/09 00:38:56;;;;;;;3.15;2.85;;;;;;;23.69;55.68;100684.09;4554582;28;20032;-65
2023/09/09 00:41:14;;;;;;;3.00;2.72;;;;;;;23.69;55.58;100682.00;4539044;28;20033;-65
2023/09/09 00:43:27;;;;;;;3.03;2.72;;;;;;;23.61;54.76;100665.81;4556302;28;20138;-65
2023/09/09 00:45:39;;;;;;;2.83;2.63;;;;;;;23.65;54.94;100678.25;4544872;28;20581;-64
2023/09/09 00:47:49;;;;;;;2.85;2.65;;;;;;;23.67;54.91;100687.34;4553627;28;20953;-65
2023/09/09 00:50:00;;;;;;;3.15;2.80;;;;;;;23.62;54.31;100673.28;4544266;28;20033;-65
2023/09/09 00:52:10;;;;;;;2.70;2.50;;;;;;;23.67;54.57;100681.59;4556836;28;20090;-65
2023/09/09 00:54:21;;;;;;;2.78;2.58;;;;;;;23.67;54.73;100687.34;4542734;28;20364;-65
2023/09/09 00:56:34;;;;;;;2.90;2.60;;;;;;;23.68;54.69;100683.25;4557089;28;20028;-65
2023/09/09 00:58:45;;;;;;;2.78;2.50;;;;;;;23.66;54.48;100676.22;4544596;28;20084;-66
2023/09/09 01:00:55;;;;;;;2.55;2.35;;;;;;;23.66;54.33;100679.91;4554063;28;20134;-65
2023/09/09 01:03:06;;;;;;;2.88;2.58;;;;;;;23.67;54.24;100672.09;4544152;28;20029;-65
2023/09/09 01:05:16;;;;;;;2.50;2.30;;;;;;;23.66;54.07;100674.16;4553458;28;20484;-64
2023/09/09 01:07:27;;;;;;;2.53;2.33;;;;;;;23.63;54.02;100669.16;4543502;28;20056;-65
2023/09/09 01:09:37;;;;;;;2.72;2.53;;;;;;;23.59;54.02;100660.44;4554484;28;20040;-65
2023/09/09 01:11:48;;;;;;;3.00;2.70;;;;;;;23.63;54.25;100664.25;4555273;28;20047;-65
2023/09/09 01:13:58;;;;;;;2.63;2.42;;;;;;;23.66;54.00;100674.16;4553642;28;20529;-65
2023/09/09 01:16:09;;;;;;;2.70;2.50;;;;;;;23.67;53.95;100670.06;4533393;28;20034;-65
2023/09/09 01:18:21;;;;;;;2.55;2.35;;;;;;;23.65;54.06;100660.97;4555250;28;20116;-65
2023/09/09 01:20:36;;;;;;;2.65;2.45;;;;;;;23.65;54.06;100663.84;4554517;28;20029;-65
2023/09/09 01:22:49;;;;;;;2.63;2.42;;;;;;;23.65;54.44;100666.72;4570013;27;20028;-65
2023/09/09 01:25:01;;;;;;;2.75;2.22;;;;;;;23.65;53.99;100658.09;4548761;28;20029;-65
2023/09/09 01:27:11;;;;;;;2.70;2.50;;;;;;;23.64;54.12;100656.44;4556269;28;20060;-65
2023/09/09 01:29:22;;;;;;;2.95;2.65;;;;;;;23.60;53.90;100652.66;4554142;28;20056;-65
2023/09/09 01:31:33;;;;;;;3.20;2.40;;;;;;;23.62;54.11;100658.88;4569122;27;20037;-65
2023/09/09 01:33:44;;;;;;;2.35;2.15;;;;;;;23.62;54.00;100661.75;4555283;28;20921;-65
2023/09/09 01:35:54;;;;;;;2.38;2.17;;;;;;;23.64;54.09;100660.13;4552924;28;20021;-65
2023/09/09 01:38:05;;;;;;;2.90;2.60;;;;;;;23.59;54.24;100653.88;4555297;28;20036;-65
2023/09/09 01:40:15;;;;;;;2.45;2.25;;;;;;;23.64;53.94;100653.56;4555678;28;20039;-65
2023/09/09 01:42:26;;;;;;;2.53;2.33;;;;;;;23.64;53.89;100659.31;4555538;28;20123;-65
2023/09/09 01:44:36;;;;;;;2.72;2.20;;;;;;;23.60;53.93;100641.13;4569366;27;20209;-65
2023/09/09 01:46:47;;;;;;;2.25;2.03;;;;;;;23.64;53.91;100647.78;4543484;28;20037;-65
2023/09/09 01:48:58;;;;;;;2.28;2.08;;;;;;;23.60;53.51;100641.13;4536368;28;20041;-64
2023/09/09 01:51:08;;;;;;;2.00;1.90;;;;;;;23.64;53.62;100650.66;4555084;28;20064;-65
2023/09/09 01:53:19;;;;;;;2.60;2.20;;;;;;;23.63;53.82;100649.00;4553978;28;20040;-65
2023/09/09 01:55:29;;;;;;;2.50;2.30;;;;;;;23.62;53.95;100650.22;4542713;28;20976;-65
2023/09/09 01:57:40;;;;;;;2.60;2.40;;;;;;;23.63;53.62;100651.06;4536751;28;20416;-68
2023/09/09 01:59:50;;;;;;;2.40;2.20;;;;;;;23.62;53.45;100650.22;4531769;28;20108;-65
2023/09/09 02:02:00;;;;;;;2.55;2.35;;;;;;;23.63;53.42;100649.00;4570600;27;20055;-65
2023/09/09 02:04:11;;;;;;;2.60;2.38;;;;;;;23.59;53.33;100642.34;4553011;28;20029;-65
2023/09/09 02:06:21;;;;;;;2.75;2.25;;;;;;;23.61;53.52;100651.41;4542346;28;20470;-65
2023/09/09 02:08:32;;;;;;;2.42;2.22;;;;;;;23.49;53.34;100625.72;4534272;28;20041;-65
2023/09/09 02:10:42;;;;;;;2.28;2.08;;;;;;;23.61;53.48;100648.53;4536814;28;20124;-65
2023/09/09 02:12:53;;;;;;;2.95;2.55;;;;;;;23.58;53.05;100649.31;4554770;28;20039;-65
2023/09/09 02:15:04;;;;;;;2.65;2.45;;;;;;;23.63;53.42;100657.63;4568762;27;20032;-65
2023/09/09 02:17:17;;;;;;;2.42;2.22;;;;;;;23.60;53.35;100646.88;4542057;28;20551;-65
2023/09/09 02:19:27;;;;;;;2.38;2.17;;;;;;;23.59;53.17;100642.34;4567044;27;20020;-65
2023/09/09 02:21:37;;;;;;;2.60;2.40;;;;;;;23.61;53.29;100654.28;4518544;28;20033;-65
2023/09/09 02:23:49;;;;;;;2.83;2.40;;;;;;;23.60;53.27;100652.66;4553175;28;20036;-65
2023/09/09 02:26:00;;;;;;;2.42;2.10;;;;;;;23.55;53.18;100644.31;4553150;28;20032;-65
2023/09/09 02:28:10;;;;;;;2.90;2.53;;;;;;;23.60;53.23;100652.66;4553228;28;20041;-65
2023/09/09 02:30:21;;;;;;;2.47;2.28;;;;;;;23.59;53.19;100645.22;4542487;28;20440;-65
2023/09/09 02:32:32;;;;;;;2.50;2.30;;;;;;;23.60;52.98;100652.66;4555177;28;20119;-65
2023/09/09 02:34:42;;;;;;;2.40;2.20;;;;;;;23.59;53.09;100651.81;4554568;28;20449;-65
2023/09/09 02:37:14;;;;;;;2.40;2.20;;;;;;;23.60;52.80;100658.41;4552339;28;20041;-65
2023/09/09 02:39:24;;;;;;;2.80;2.40;;;;;;;23.57;52.94;100645.63;4548775;28;20041;-65
2023/09/09 02:41:35;;;;;;;2.38;2.17;;;;;;;23.57;53.05;100641.91;4554332;28;20033;-65
2023/09/09 02:43:45;;;;;;;2.85;2.55;;;;;;;23.58;52.86;100643.53;4554122;28;20065;-65
2023/09/09 02:45:56;;;;;;;2.42;2.22;;;;;;;23.56;52.90;100641.06;4536167;28;20030;-66
2023/09/09 02:48:06;;;;;;;2.65;2.45;;;;;;;23.57;52.57;100642.75;4542505;28;20051;-65
2023/09/09 02:50:17;;;;;;;2.70;2.50;;;;;;;23.51;52.66;100635.66;4552233;28;20043;-65
2023/09/09 02:52:28;;;;;;;2.35;2.15;;;;;;;23.57;52.82;100650.53;4533335;28;20473;-65
2023/09/09 02:54:39;;;;;;;2.70;2.35;;;;;;;23.59;52.84;100645.22;4553404;28;20068;-65
2023/09/09 02:56:49;;;;;;;2.60;2.40;;;;;;;23.55;52.89;100644.31;4543222;28;20063;-65
2023/09/09 02:59:00;;;;;;;2.40;2.20;;;;;;;23.56;52.54;100649.69;4551169;28;20178;-65
2023/09/09 03:01:11;;;;;;;2.60;2.40;;;;;;;23.54;52.60;100648.44;4543470;28;20040;-65
2023/09/09 03:03:21;;;;;;;2.50;2.30;;;;;;;23.55;52.64;100644.31;4566375;27;20178;-65
2023/09/09 03:05:35;;;;;;;2.30;1.95;;;;;;;23.58;52.63;100652.19;4541630;28;20060;-65
2023/09/09 03:07:48;;;;;;;2.40;2.20;;;;;;;23.45;52.65;100627.72;4552812;28;20582;-65
2023/09/09 03:09:58;;;;;;;2.40;2.20;;;;;;;23.56;52.54;100646.00;4553047;28;20028;-65
2023/09/09 03:12:09;;;;;;;2.50;2.30;;;;;;;23.53;52.35;100646.78;4534357;28;20021;-65
2023/09/09 03:14:19;;;;;;;2.50;2.30;;;;;;;23.54;52.59;100640.63;4553990;28;20025;-65
2023/09/09 03:16:30;;;;;;;2.30;2.10;;;;;;;23.54;52.44;100646.41;4542766;28;20601;-65
2023/09/09 03:18:40;;;;;;;3.03;2.30;;;;;;;23.57;52.21;100653.41;4554774;28;20488;-65
2023/09/09 03:20:51;;;;;;;2.22;2.03;;;;;;;23.55;52.41;100644.31;4530276;28;20042;-65
2023/09/09 03:23:01;;;;;;;2.58;2.38;;;;;;;23.56;52.23;100651.78;4551065;28;20035;-65
2023/09/09 03:25:12;;;;;;;2.53;2.33;;;;;;;23.56;52.33;100648.88;4550421;28;20122;-65
2023/09/09 03:27:23;;;;;;;2.40;2.20;;;;;;;23.53;52.38;100653.34;4541338;28;20048;-65
2023/09/09 03:29:33;;;;;;;2.28;2.08;;;;;;;23.56;52.36;100651.78;4551920;28;20163;-64
2023/09/09 03:31:43;;;;;;;2.40;2.20;;;;;;;23.51;52.16;100649.22;4538189;28;20079;-65
2023/09/09 03:33:54;;;;;;;2.55;2.10;;;;;;;23.54;51.95;100654.19;4546012;28;20060;-65
2023/09/09 03:36:05;;;;;;;2.50;2.30;;;;;;;23.55;52.08;100658.72;4545008;28;20033;-65
2023/09/09 03:38:16;;;;;;;3.17;2.22;;;;;;;23.55;52.29;100661.63;4571037;27;20116;-65
2023/09/09 03:40:27;;;;;;;2.40;2.20;;;;;;;23.51;52.06;100654.97;4555476;28;20028;-65
2023/09/09 03:42:38;;;;;;;2.13;1.92;;;;;;;23.50;52.01;100648.38;4557161;28;20038;-65
2023/09/09 03:44:49;;;;;;;2.67;2.30;;;;;;;23.53;52.35;100655.44;4553881;28;20040;-65
2023/09/09 03:46:59;;;;;;;2.40;2.20;;;;;;;23.53;52.17;100659.13;4544707;28;20017;-65
2023/09/09 03:49:10;;;;;;;2.42;2.22;;;;;;;23.53;52.29;100656.25;4554580;28;20167;-65
2023/09/09 03:51:20;;;;;;;3.08;2.22;;;;;;;23.50;52.16;100648.38;4555747;28;20064;-65
2023/09/09 03:53:31;;;;;;;2.30;2.10;;;;;;;23.49;52.14;100651.63;4570634;27;20036;-65
2023/09/09 03:55:41;;;;;;;3.08;2.00;;;;;;;23.51;51.82;100649.22;4545066;28;20055;-65
2023/09/09 03:57:52;;;;;;;1.92;1.83;;;;;;;23.52;51.77;100650.88;4557502;28;20044;-65
2023/09/09 04:00:05;;;;;;;2.20;2.00;;;;;;;23.54;51.77;100657.06;4544690;28;20040;-65
2023/09/09 04:02:23;;;;;;;2.20;2.00;;;;;;;23.53;51.92;100652.53;4536245;28;20041;-65
2023/09/09 04:04:33;;;;;;;2.47;2.20;;;;;;;23.53;52.11;100652.53;4556307;28;20553;-65
2023/09/09 04:06:44;;;;;;;2.13;1.92;;;;;;;23.53;51.76;100652.53;4557397;28;20052;-65
2023/09/09 04:08:56;;;;;;;2.40;2.20;;;;;;;23.49;52.01;100649.59;4544542;28;20087;-65
2023/09/09 04:11:07;;;;;;;2.30;2.10;;;;;;;23.47;51.54;100649.13;4534509;28;20862;-65
2023/09/09 04:13:18;;;;;;;2.17;1.98;;;;;;;23.48;51.59;100644.22;4534921;28;20113;-65
2023/09/09 04:15:29;;;;;;;2.22;2.03;;;;;;;23.50;51.70;100651.25;4554883;28;20112;-65
2023/09/09 04:17:40;;;;;;;2.10;1.90;;;;;;;23.52;51.59;100654.59;4571036;27;20107;-65
2023/09/09 04:19:51;;;;;;;2.25;2.05;;;;;;;23.51;51.83;100661.56;4537532;28;20490;-65
2023/09/09 04:22:01;;;;;;;2.50;2.30;;;;;;;23.52;51.83;100660.34;4544576;28;20400;-66
2023/09/09 04:24:12;;;;;;;2.25;2.05;;;;;;;23.51;51.66;100652.09;4555500;28;20401;-64
2023/09/09 04:26:22;;;;;;;2.13;1.92;;;;;;;23.47;51.59;100642.53;4536760;28;20537;-65
2023/09/09 04:28:33;;;;;;;2.20;2.00;;;;;;;23.50;51.27;100650.41;4554956;28;20471;-64
2023/09/09 04:30:45;;;;;;;2.42;2.10;;;;;;;23.50;51.68;100654.13;4544722;28;20069;-65
2023/09/09 04:32:57;;;;;;;2.10;1.83;;;;;;;23.50;51.47;100647.53;4568406;27;20589;-65
2023/09/09 04:35:08;;;;;;;2.30;2.10;;;;;;;23.50;51.29;100651.25;4570375;27;20040;-65
2023/09/09 04:37:18;;;;;;;2.05;1.85;;;;;;;23.44;51.50;100637.56;4570680;27;20036;-65
2023/09/09 04:39:29;;;;;;;2.00;1.80;;;;;;;23.49;51.39;100648.75;4535502;28;20034;-65
2023/09/09 04:41:40;;;;;;;2.38;2.17;;;;;;;23.51;50.91;100652.09;4555736;28;20051;-65
2023/09/09 04:43:50;;;;;;;2.25;2.03;;;;;;;23.49;51.29;100651.63;4537673;28;20037;-65
2023/09/09 04:46:01;;;;;;;2.35;2.03;;;;;;;23.47;51.30;100648.31;4557773;28;20505;-65
2023/09/09 04:48:12;;;;;;;1.98;1.80;;;;;;;23.46;51.41;100652.41;4544149;28;20025;-66
2023/09/09 04:50:22;;;;;;;2.22;1.98;;;;;;;23.45;51.21;100645.00;4554202;28;21124;-65
2023/09/09 04:52:33;;;;;;;2.15;1.95;;;;;;;23.50;51.35;100659.06;4542833;28;20071;-65
2023/09/09 04:54:44;;;;;;;2.42;1.92;;;;;;;23.48;51.27;100647.91;4568374;27;20518;-64
2023/09/09 04:56:55;;;;;;;2.58;2.05;;;;;;;23.49;51.29;100658.25;4554677;28;20029;-65
2023/09/09 04:59:05;;;;;;;2.10;1.90;;;;;;;23.49;51.31;100658.25;4556955;28;20029;-65
2023/09/09 05:01:16;;;;;;;2.40;2.15;;;;;;;23.47;51.49;100651.19;4535547;28;20602;-65
2023/09/09 05:03:26;;;;;;;2.33;2.13;;;;;;;23.42;51.28;100643.69;4543544;28;20036;-65
2023/09/09 05:05:37;;;;;;;2.30;2.10;;;;;;;23.48;51.18;100655.75;4537721;28;20116;-65
2023/09/09 05:07:48;;;;;;;2.53;2.20;;;;;;;23.49;51.53;100651.63;4543857;28;20106;-65
2023/09/09 05:09:58;;;;;;;2.10;1.90;;;;;;;23.47;51.77;100649.13;4554482;28;20132;-65
2023/09/09 05:12:09;;;;;;;2.22;2.03;;;;;;;23.47;51.59;100646.25;4549477;28;20392;-65
2023/09/09 05:14:19;;;;;;;1.98;1.80;;;;;;;23.48;51.30;100649.97;4544183;28;20033;-65
2023/09/09 05:16:30;;;;;;;2.33;2.00;;;;;;;23.38;51.22;100634.19;4555114;28;20120;-66
2023/09/09 05:18:40;;;;;;;2.22;2.03;;;;;;;23.45;51.45;100642.94;4539751;28;20058;-69
2023/09/09 05:20:51;;;;;;;2.20;2.00;;;;;;;23.48;51.64;100652.88;4555611;28;20037;-66
2023/09/09 05:23:02;;;;;;;2.67;2.00;;;;;;;23.43;51.44;100650.31;4547813;28;20108;-65
2023/09/09 05:25:13;;;;;;;1.98;1.77;;;;;;;23.49;51.80;100664.00;4555381;28;20112;-64
2023/09/09 05:27:24;;;;;;;2.13;1.92;;;;;;;23.46;51.35;100655.28;4572312;27;20452;-65
2023/09/09 05:29:34;;;;;;;2.20;2.00;;;;;;;23.48;51.76;100667.28;4554963;28;20076;-65
2023/09/09 05:31:46;;;;;;;2.20;2.00;;;;;;;23.44;51.38;100657.72;4556716;28;20056;-65
2023/09/09 05:33:57;;;;;;;1.90;1.80;;;;;;;23.49;51.68;100663.16;4553495;28;20081;-65
2023/09/09 05:36:07;;;;;;;2.13;1.92;;;;;;;23.44;51.39;100654.84;4556267;28;20037;-66
2023/09/09 05:38:18;;;;;;;2.00;1.80;;;;;;;23.48;51.45;100661.50;4544407;28;20116;-65
2023/09/09 05:40:28;;;;;;;2.00;1.80;;;;;;;23.34;51.29;100650.56;4545185;28;20083;-65
2023/09/09 05:42:39;;;;;;;2.15;1.95;;;;;;;23.47;51.34;100662.69;4556631;28;20091;-65
2023/09/09 05:44:50;;;;;;;2.13;1.70;;;;;;;23.48;51.43;100670.16;4544297;28;20037;-65
2023/09/09 05:47:01;;;;;;;1.92;1.75;;;;;;;23.44;51.58;100675.00;4528117;28;20038;-65
2023/09/09 05:49:11;;;;;;;2.03;1.80;;;;;;;23.45;51.73;100671.72;4556805;28;20040;-65
2023/09/09 05:51:22;;;;;;;2.10;1.90;;;;;;;23.46;51.43;100675.47;4543757;28;20074;-65
2023/09/09 05:53:32;;;;;;;2.10;1.70;;;;;;;23.43;51.59;100679.13;4569809;27;20028;-65
2023/09/09 05:55:43;;;;;;;2.10;1.90;;;;;;;23.46;51.88;100675.47;4570514;27;20024;-65
2023/09/09 05:57:53;;;;;;;2.03;1.83;;;;;;;23.46;51.88;100673.41;4571470;27;20399;-65
2023/09/09 06:00:04;;;;;;;2.20;2.00;;;;;;;23.46;51.96;100678.34;4543063;28;20037;-65
2023/09/09 06:02:23;;;;;;;2.08;1.88;;;;;;;23.46;51.50;100675.47;4552544;28;20684;-65
2023/09/09 06:04:33;;;;;;;2.50;2.28;;;;;;;23.43;51.70;100670.47;4571061;27;20726;-65
2023/09/09 06:06:45;;;;;;;1.85;1.75;;;;;;;23.45;52.34;100673.81;4558757;28;20044;-65
2023/09/09 06:08:55;;;;;;;2.38;1.80;;;;;;;23.42;52.26;100678.28;4554362;28;20048;-65
2023/09/09 06:11:07;;;;;;;2.28;1.90;;;;;;;23.40;52.04;100677.81;4535489;28;20968;-65
2023/09/09 06:13:17;;;;;;;2.80;1.90;;;;;;;23.36;52.02;100676.09;4542768;28;20091;-65
2023/09/09 06:15:27;;;;;;;2.40;1.90;;;;;;;23.34;52.19;100678.53;4536106;28;20033;-65
2023/09/09 06:17:39;;;;;;;2.83;2.33;;;;;;;23.31;52.58;100685.03;4568546;27;20036;-65
2023/09/09 06:19:50;;;;;;;2.17;1.98;;;;;;;23.28;52.80;100680.06;4535707;28;20024;-65
2023/09/09 06:22:01;;;;;;;2.22;1.90;;;;;;;23.25;52.64;100680.78;4534935;28;20029;-65
2023/09/09 06:24:12;;;;;;;2.50;2.17;;;;;;;23.25;52.67;100687.44;4535960;28;20112;-65
2023/09/09 06:26:23;;;;;;;2.33;2.13;;;;;;;23.15;52.58;100670.75;4553543;28;20797;-65
2023/09/09 06:28:34;;;;;;;2.17;1.98;;;;;;;23.21;52.85;100685.66;4551710;28;20042;-65
2023/09/09 06:30:45;;;;;;;2.10;1.90;;;;;;;23.21;53.08;100698.00;4543748;28;20045;-65
2023/09/09 06:32:55;;;;;;;2.67;2.08;;;;;;;23.17;53.12;100697.13;4542295;28;20037;-65
2023/09/09 06:35:07;;;;;;;2.60;1.90;;;;;;;23.17;53.23;100696.28;4553098;28;20074;-65
2023/09/09 06:37:17;;;;;;;1.63;1.52;;;;;;;23.17;53.54;100691.34;4553338;28;21501;-65
2023/09/09 06:39:27;;;;;;;2.85;2.00;;;;;;;23.11;53.28;100692.91;4553791;28;20043;-65
2023/09/09 06:41:38;;;;;;;2.38;2.00;;;;;;;23.12;53.53;100699.50;4557394;28;20081;-65
2023/09/09 06:43:49;;;;;;;2.10;1.95;;;;;;;23.12;53.71;100706.06;4533977;28;20091;-65
2023/09/09 06:46:00;;;;;;;1.83;1.73;;;;;;;23.10;53.91;100701.91;4554060;28;20021;-65
2023/09/09 06:48:10;;;;;;;2.22;2.03;;;;;;;23.10;54.38;100708.47;4553578;28;20114;-65
2023/09/09 06:50:21;;;;;;;2.05;1.90;;;;;;;23.04;54.47;100700.56;4555537;28;20060;-65
2023/09/09 06:52:31;;;;;;;2.38;2.17;;;;;;;23.06;54.55;100712.50;4543010;28;20405;-65
2023/09/09 06:54:43;;;;;;;2.10;1.90;;;;;;;23.07;54.55;100708.44;4542689;28;20614;-65
2023/09/09 06:56:54;;;;;;;2.20;2.00;;;;;;;23.03;54.71;100713.28;4552366;28;20094;-66
2023/09/09 06:59:05;;;;;;;2.10;1.85;;;;;;;23.06;54.95;100715.38;4543314;28;20124;-65
2023/09/09 07:01:15;;;;;;;3.25;1.90;;;;;;;23.06;55.21;100718.28;4552645;28;20136;-65
2023/09/09 07:03:25;;;;;;;1.83;1.73;;;;;;;23.05;55.43;100713.75;4554191;28;20032;-65
2023/09/09 07:05:36;;;;;;;2.55;2.00;;;;;;;23.05;55.49;100710.84;4553500;28;20054;-65
2023/09/09 07:07:47;;;;;;;2.85;2.28;;;;;;;23.04;55.72;100717.84;4553169;28;20063;-65
2023/09/09 07:09:57;;;;;;;2.38;2.17;;;;;;;23.05;55.62;100719.50;4555157;28;20024;-65
2023/09/09 07:12:10;;;;;;;3.67;2.20;;;;;;;23.06;55.58;100719.13;4542537;28;20073;-65
2023/09/09 07:14:20;;;;;;;2.42;2.22;;;;;;;23.07;55.68;100725.72;4535468;28;20037;-65
2023/09/09 07:16:32;;;;;;;2.47;2.00;;;;;;;23.07;55.75;100728.59;4555262;28;20033;-65
2023/09/09 07:18:43;;;;;;;2.20;2.00;;;;;;;23.07;55.82;100720.75;4555528;28;20114;-65
2023/09/09 07:20:57;;;;;;;3.13;2.38;;;;;;;23.09;55.82;100720.38;4543296;28;20037;-65
2023/09/09 07:23:08;;;;;;;2.90;2.20;;;;;;;23.07;56.23;100722.84;4553930;28;20055;-65
2023/09/09 07:25:18;;;;;;;2.10;1.90;;;;;;;23.08;56.06;100718.72;4554918;28;20040;-65
2023/09/09 07:27:29;;;;;;;2.30;2.10;;;;;;;23.07;56.50;100714.19;4551240;28;20048;-65
2023/09/09 07:29:39;;;;;;;2.75;2.20;;;;;;;23.08;56.56;100708.06;4554605;28;20516;-64
2023/09/09 07:31:49;;;;;;;2.45;2.25;;;;;;;23.07;56.85;100717.06;4555023;28;20024;-66
2023/09/09 07:34:00;;;;;;;2.53;2.33;;;;;;;23.08;56.76;100727.38;4555184;28;20407;-66
2023/09/09 07:36:11;;;;;;;2.65;2.30;;;;;;;23.10;56.87;100731.53;4534604;28;20119;-66
2023/09/09 07:38:21;;;;;;;2.47;2.28;;;;;;;23.08;57.19;100716.69;4557099;28;20032;-66
2023/09/09 07:40:32;;;;;;;2.63;2.42;;;;;;;23.09;57.72;100706.84;4556607;28;20040;-66
2023/09/09 07:42:42;;;;;;;2.78;2.20;;;;;;;23.11;57.72;100720.84;4552775;28;20036;-66
2023/09/09 07:44:53;;;;;;;2.50;2.30;;;;;;;23.08;57.99;100719.56;4554889;28;20040;-66
2023/09/09 07:47:06;;;;;;;2.55;2.35;;;;;;;23.12;58.96;100719.66;4526095;28;20038;-65
2023/09/09 07:49:21;;;;;;;2.70;2.50;;;;;;;23.11;59.19;100718.81;4553453;28;20044;-66
2023/09/09 07:51:31;;;;;;;2.60;2.30;;;;;;;23.13;59.61;100724.19;4555661;28;20033;-66
2023/09/09 07:53:41;;;;;;;2.47;2.25;;;;;;;23.06;59.91;100701.84;4534463;28;20037;-66
2023/09/09 07:55:52;;;;;;;2.60;2.38;;;;;;;23.10;60.03;100713.44;4553230;28;20068;-66
2023/09/09 07:58:02;;;;;;;2.30;2.10;;;;;;;23.09;60.26;100708.88;4552852;28;20477;-66
2023/09/09 08:00:13;;;;;;;2.67;2.42;;;;;;;23.11;60.59;100713.06;4554412;28;20028;-66
2023/09/09 08:02:23;;;;;;;2.50;2.30;;;;;;;23.09;60.93;100709.72;4553226;28;21012;-66
2023/09/09 08:04:34;;;;;;;2.53;2.25;;;;;;;23.14;61.03;100715.16;4542440;28;20570;-65
2023/09/09 08:06:46;;;;;;;3.22;2.60;;;;;;;23.15;61.27;100727.53;4554136;28;20048;-66
2023/09/09 08:08:56;;;;;;;2.50;2.30;;;;;;;23.13;61.92;100724.19;4553021;28;20048;-66
2023/09/09 08:11:06;;;;;;;2.40;2.20;;;;;;;23.13;62.68;100730.78;4553532;28;20036;-66
2023/09/09 08:13:17;;;;;;;2.70;2.50;;;;;;;23.13;62.15;100725.03;4552042;28;20067;-66
2023/09/09 08:15:27;;;;;;;2.40;2.20;;;;;;;23.02;61.45;100703.84;4554307;27;20032;-66
2023/09/09 08:17:38;;;;;;;2.50;2.30;;;;;;;23.13;61.99;100722.16;4555894;28;20056;-66
2023/09/09 08:19:48;;;;;;;2.53;2.25;;;;;;;23.16;61.52;100732.06;4543875;28;20579;-66
2023/09/09 08:21:59;;;;;;;2.40;2.17;;;;;;;23.13;62.24;100730.78;4556239;28;20028;-66
2023/09/09 08:24:09;;;;;;;2.58;2.30;;;;;;;23.15;62.33;100724.66;4543671;28;20039;-66
2023/09/09 08:26:20;;;;;;;2.58;2.33;;;;;;;23.13;62.08;100725.03;4555340;28;20028;-65
2023/09/09 08:28:31;;;;;;;2.50;2.30;;;;;;;23.14;62.99;100722.97;4554448;28;20053;-66
2023/09/09 08:30:41;;;;;;;2.33;2.13;;;;;;;23.12;63.29;100722.53;4557245;28;20033;-66
2023/09/09 08:32:51;;;;;;;2.97;2.30;;;;;;;23.16;63.76;100730.03;4545710;28;20570;-66
2023/09/09 08:35:03;;;;;;;2.65;2.30;;;;;;;23.16;63.86;100730.03;4555462;28;20067;-66
2023/09/09 08:37:13;;;;;;;2.60;2.40;;;;;;;23.19;63.91;100739.94;4554335;28;20847;-65
2023/09/09 08:39:25;;;;;;;3.22;2.40;;;;;;;23.17;63.25;100737.44;4557562;28;20060;-66
2023/09/09 08:41:58;;;;;;;3.10;2.30;;;;;;;23.15;62.73;100728.34;4555560;28;20044;-66
2023/09/09 08:44:18;;;;;;;2.70;2.50;;;;;;;23.17;62.66;100742.34;4554154;28;20159;-66
2023/09/09 08:46:29;;;;;;;2.50;2.30;;;;;;;23.18;62.54;100738.28;4553859;28;20033;-66
2023/09/09 08:48:42;;;;;;;2.97;2.42;;;;;;;23.19;63.08;100735.00;4539689;28;20595;-66
2023/09/09 08:50:55;;;;;;;2.40;2.20;;;;;;;23.19;63.28;100735.00;4553411;28;20622;-66
2023/09/09 08:53:06;;;;;;;2.63;2.38;;;;;;;23.19;63.10;100737.06;4556318;28;20039;-66
2023/09/09 08:55:17;;;;;;;2.90;2.50;;;;;;;23.21;63.42;100737.50;4554727;28;20094;-66
2023/09/09 08:57:29;;;;;;;2.75;2.45;;;;;;;23.22;63.51;100742.03;4554865;28;20032;-66
2023/09/09 08:59:41;;;;;;;2.60;2.40;;;;;;;23.18;62.96;100732.50;4555260;28;20037;-66
2023/09/09 09:01:52;;;;;;;2.53;2.25;;;;;;;23.21;63.27;100737.50;4557077;28;20083;-66
2023/09/09 09:04:02;;;;;;;2.70;2.40;;;;;;;23.22;62.40;100727.63;4554032;28;20121;-65
2023/09/09 09:06:13;;;;;;;2.40;2.20;;;;;;;23.15;61.91;100727.53;4525240;27;20052;-65
2023/09/09 09:08:23;;;;;;;2.72;2.50;;;;;;;23.16;61.33;100717.66;4550909;28;20454;-65
2023/09/09 09:10:34;;;;;;;2.35;2.15;;;;;;;23.21;60.35;100728.88;4555090;28;20028;-65
2023/09/09 09:12:44;;;;;;;2.60;2.40;;;;;;;23.21;59.06;100741.19;4554600;28;20029;-65
2023/09/09 09:14:55;;;;;;;2.50;2.30;;;;;;;23.17;59.69;100730.81;4554359;28;20036;-65
2023/09/09 09:17:05;;;;;;;2.58;2.33;;;;;;;23.20;59.72;100742.44;4555406;28;20033;-65
2023/09/09 09:19:29;;;;;;;2.05;1.90;;;;;;;23.18;58.94;100738.28;4554688;28;20020;-65
2023/09/09 09:21:39;;;;;;;2.20;2.00;;;;;;;23.17;59.19;100733.72;4554416;28;20040;-65
2023/09/09 09:23:50;;;;;;;2.28;2.08;;;;;;;23.17;59.39;100736.59;4543528;28;20037;-65
2023/09/09 09:26:00;;;;;;;3.08;2.30;;;;;;;23.21;58.34;100737.50;4554906;28;20108;-65
2023/09/09 09:28:15;;;;;;;2.63;2.30;;;;;;;23.21;58.02;100746.16;4554975;28;20044;-65
2023/09/09 09:30:26;;;;;;;2.30;2.10;;;;;;;23.21;57.63;100737.50;4553637;28;20074;-65
2023/09/09 09:32:41;;;;;;;2.55;2.03;;;;;;;23.21;59.12;100737.50;4556902;28;20908;-65
2023/09/09 09:34:51;;;;;;;2.47;2.28;;;;;;;23.20;58.64;100742.44;4554942;28;20033;-65
2023/09/09 09:37:12;;;;;;;3.25;2.50;;;;;;;23.17;58.77;100733.72;4556296;28;20028;-65
2023/09/09 09:39:22;;;;;;;2.58;2.30;;;;;;;23.18;58.96;100738.28;4557469;28;20057;-65
2023/09/09 09:41:33;;;;;;;3.38;2.33;;;;;;;23.18;58.66;100736.19;4544683;28;20033;-65
2023/09/09 09:43:47;;;;;;;2.88;2.20;;;;;;;23.20;58.88;100739.53;4536446;28;20843;-66
2023/09/09 09:46:13;;;;;;;2.72;2.40;;;;;;;23.21;61.14;100740.38;4552555;28;20961;-65
2023/09/09 09:48:27;;;;;;;2.92;2.63;;;;;;;23.17;60.84;100730.81;4554886;28;20029;-65
2023/09/09 09:50:40;;;;;;;3.20;2.40;;;;;;;23.19;58.85;100735.00;4543615;28;20831;-65
2023/09/09 09:53:02;;;;;;;2.60;2.20;;;;;;;23.20;57.93;100733.78;4556452;28;20174;-65
2023/09/09 09:55:17;;;;;;;2.47;2.28;;;;;;;23.21;57.63;100734.63;4556041;28;20025;-65
2023/09/09 09:57:28;;;;;;;2.47;2.28;;;;;;;23.16;57.48;100720.53;4553627;28;20115;-65
2023/09/09 09:59:38;;;;;;;2.60;2.40;;;;;;;23.17;56.99;100731.66;4556221;28;20024;-65
2023/09/09 10:01:49;;;;;;;2.70;2.30;;;;;;;23.20;57.61;100725.16;4552515;28;20443;-65
2023/09/09 10:04:05;;;;;;;2.22;2.03;;;;;;;23.23;56.58;100732.22;4535686;28;20122;-65
2023/09/09 10:06:26;;;;;;;2.20;2.00;;;;;;;23.15;56.10;100716.00;4555296;28;20085;-65
2023/09/09 10:08:45;;;;;;;2.83;2.55;;;;;;;23.22;57.41;100725.59;4554834;28;20051;-65
2023/09/09 10:11:05;;;;;;;2.85;2.25;;;;;;;23.20;57.28;100727.19;4552830;28;20032;-65